Time;durP1;ratioP1;P1;durP2;ratioP2;P2;SDS_P1;SDS_P2;PMS_P1;PMS_P2;Temp;Humidity;BMP_temperature;BMP_pressure;BME280_temperature;BME280_humidity;BME280_pressure;Samples;Min_cycle;Max_cycle;Signal;HPM_P1;HPM_P2
2021/04/09 00:00:12;;;;;;;6.85;2.70;;;;;;;;;;5088404;28;20090;-77
2021/04/09 00:02:38;;;;;;;4.35;3.97;;;;;;;;;;5088718;28;20032;-77
2021/04/09 00:05:08;;;;;;;3.72;3.28;;;;;;;;;;5088002;28;20391;-77
2021/04/09 00:07:34;;;;;;;3.03;2.67;;;;;;;;;;5088383;28;20077;-77
2021/04/09 00:10:00;;;;;;;2.97;2.53;;;;;;;;;;5089059;28;20107;-77
2021/04/09 00:12:26;;;;;;;3.63;2.47;;;;;;;;;;5092449;28;20042;-77
2021/04/09 00:14:52;;;;;;;3.20;2.90;;;;;;;;;;5092770;28;20427;-77
2021/04/09 00:17:19;;;;;;;4.72;3.67;;;;;;;;;;5091728;28;20495;-77
2021/04/09 00:19:45;;;;;;;3.80;3.40;;;;;;;;;;5093342;28;20085;-77
2021/04/09 00:22:11;;;;;;;4.95;3.17;;;;;;;;;;5091880;28;20035;-77
2021/04/09 00:24:37;;;;;;;3.25;2.80;;;;;;;;;;5092630;28;20028;-78
2021/04/09 00:27:03;;;;;;;6.78;4.43;;;;;;;;;;5091889;28;20555;-76
2021/04/09 00:29:29;;;;;;;5.32;3.40;;;;;;;;;;5092662;28;20028;-77
2021/04/09 00:31:55;;;;;;;2.90;2.70;;;;;;;;;;5092221;28;20032;-76
2021/04/09 00:34:21;;;;;;;3.42;3.00;;;;;;;;;;5092056;28;20035;-77
2021/04/09 00:36:47;;;;;;;3.80;3.50;;;;;;;;;;5092024;28;20020;-77
2021/04/09 00:39:13;;;;;;;4.22;3.05;;;;;;;;;;5091317;28;20043;-77
2021/04/09 00:41:40;;;;;;;4.22;3.40;;;;;;;;;;5091652;28;20051;-77
2021/04/09 00:44:07;;;;;;;5.78;3.45;;;;;;;;;;5091080;28;20115;-77
2021/04/09 00:46:34;;;;;;;3.47;2.80;;;;;;;;;;5092001;28;20028;-77
2021/04/09 00:49:00;;;;;;;2.95;2.42;;;;;;;;;;5091539;28;20028;-76
2021/04/09 00:51:26;;;;;;;4.82;2.85;;;;;;;;;;5091982;28;20025;-77
2021/04/09 00:53:52;;;;;;;4.78;3.47;;;;;;;;;;5092050;28;20028;-77
2021/04/09 00:56:19;;;;;;;4.20;2.83;;;;;;;;;;5091102;28;20028;-77
2021/04/09 00:58:46;;;;;;;3.75;2.83;;;;;;;;;;5091894;28;20033;-77
2021/04/09 01:01:12;;;;;;;3.55;3.25;;;;;;;;;;5091101;28;20032;-77
2021/04/09 01:03:39;;;;;;;3.78;2.88;;;;;;;;;;5092041;28;20398;-77
2021/04/09 01:06:05;;;;;;;4.82;3.25;;;;;;;;;;5090794;28;20063;-76
2021/04/09 01:08:31;;;;;;;5.38;3.05;;;;;;;;;;5091512;28;20039;-77
2021/04/09 01:10:57;;;;;;;3.33;3.05;;;;;;;;;;5091446;28;20028;-76
2021/04/09 01:13:23;;;;;;;4.85;3.03;;;;;;;;;;5091221;28;20243;-77
2021/04/09 01:15:50;;;;;;;3.03;2.33;;;;;;;;;;5091475;28;20060;-77
2021/04/09 01:18:19;;;;;;;3.38;2.70;;;;;;;;;;5090830;28;20543;-78
2021/04/09 01:20:56;;;;;;;3.42;3.05;;;;;;;;;;5091125;28;20192;-77
2021/04/09 01:23:29;;;;;;;4.53;3.78;;;;;;;;;;5091004;28;20028;-77
2021/04/09 01:26:11;;;;;;;10.27;3.83;;;;;;;;;;5090916;28;20441;-76
2021/04/09 01:28:48;;;;;;;2.63;2.42;;;;;;;;;;5091551;28;20035;-77
2021/04/09 01:31:29;;;;;;;2.80;2.50;;;;;;;;;;5090527;28;20032;-77
2021/04/09 01:33:57;;;;;;;6.57;3.15;;;;;;;;;;5091029;28;20024;-76
2021/04/09 01:36:25;;;;;;;4.25;3.72;;;;;;;;;;5090486;28;20039;-77
2021/04/09 01:38:53;;;;;;;2.92;2.72;;;;;;;;;;5091201;28;20109;-77
2021/04/09 01:41:20;;;;;;;3.10;2.80;;;;;;;;;;5090570;28;20035;-77
2021/04/09 01:43:46;;;;;;;3.53;3.13;;;;;;;;;;5091063;28;20031;-77
2021/04/09 01:46:14;;;;;;;3.35;2.65;;;;;;;;;;5089827;28;20040;-76
2021/04/09 01:48:41;;;;;;;3.65;2.50;;;;;;;;;;5091129;28;20052;-77
2021/04/09 01:51:09;;;;;;;2.65;2.45;;;;;;;;;;5090275;28;20425;-77
2021/04/09 01:53:36;;;;;;;4.10;3.08;;;;;;;;;;5090701;28;20036;-77
2021/04/09 01:56:02;;;;;;;4.15;2.67;;;;;;;;;;5089727;28;20052;-77
2021/04/09 01:58:29;;;;;;;3.53;3.08;;;;;;;;;;5090849;28;20534;-77
2021/04/09 02:00:58;;;;;;;2.30;2.10;;;;;;;;;;5090386;28;20398;-76
2021/04/09 02:03:25;;;;;;;2.95;2.67;;;;;;;;;;5089695;28;20028;-77
2021/04/09 02:05:51;;;;;;;3.58;3.28;;;;;;;;;;5089976;28;20470;-77
2021/04/09 02:08:19;;;;;;;5.07;3.03;;;;;;;;;;5089742;28;20194;-77
2021/04/09 02:10:46;;;;;;;3.50;2.67;;;;;;;;;;5090511;28;20024;-77
2021/04/09 02:13:12;;;;;;;3.38;3.05;;;;;;;;;;5089589;28;20028;-77
2021/04/09 02:15:39;;;;;;;3.70;2.88;;;;;;;;;;5090375;28;20020;-77
2021/04/09 02:18:05;;;;;;;3.20;2.78;;;;;;;;;;5089812;28;20076;-77
2021/04/09 02:20:31;;;;;;;2.97;2.67;;;;;;;;;;5090292;28;20152;-77
2021/04/09 02:22:57;;;;;;;2.20;2.00;;;;;;;;;;5089490;28;20020;-76
2021/04/09 02:25:24;;;;;;;3.97;3.05;;;;;;;;;;5089853;28;20032;-77
2021/04/09 02:27:51;;;;;;;3.80;3.30;;;;;;;;;;5090286;28;20035;-77
2021/04/09 02:30:18;;;;;;;4.63;2.97;;;;;;;;;;5089391;28;20114;-77
2021/04/09 02:32:44;;;;;;;3.50;2.22;;;;;;;;;;5089801;28;20024;-77
2021/04/09 02:35:11;;;;;;;4.63;3.00;;;;;;;;;;5088968;28;20020;-77
2021/04/09 02:37:39;;;;;;;2.75;2.55;;;;;;;;;;5090212;28;20032;-77
2021/04/09 02:40:07;;;;;;;2.53;2.20;;;;;;;;;;5088849;28;20028;-76
2021/04/09 02:42:34;;;;;;;3.30;3.00;;;;;;;;;;5089654;28;20039;-77
2021/04/09 02:45:00;;;;;;;5.25;3.00;;;;;;;;;;5089145;28;20042;-77
2021/04/09 02:47:28;;;;;;;4.57;2.97;;;;;;;;;;5089528;28;20031;-77
2021/04/09 02:50:00;;;;;;;3.10;2.30;;;;;;;;;;5089878;28;20035;-75
2021/04/09 02:52:29;;;;;;;4.22;2.58;;;;;;;;;;5089238;28;20024;-77
2021/04/09 02:54:57;;;;;;;5.75;3.33;;;;;;;;;;5089370;28;20028;-76
2021/04/09 02:57:24;;;;;;;3.83;3.13;;;;;;;;;;5089823;28;20024;-77
2021/04/09 02:59:51;;;;;;;2.60;2.38;;;;;;;;;;5090160;28;20116;-77
2021/04/09 03:02:18;;;;;;;4.72;2.90;;;;;;;;;;5088558;28;20031;-77
2021/04/09 03:04:45;;;;;;;4.10;2.95;;;;;;;;;;5089631;28;20049;-77
2021/04/09 03:07:12;;;;;;;3.85;2.78;;;;;;;;;;5088234;28;20597;-77
2021/04/09 03:09:38;;;;;;;2.78;2.20;;;;;;;;;;5089721;28;20020;-77
2021/04/09 03:12:14;;;;;;;4.78;3.10;;;;;;;;;;5088715;28;20398;-76
2021/04/09 03:14:41;;;;;;;2.35;2.15;;;;;;;;;;5089721;28;20027;-77
2021/04/09 03:17:09;;;;;;;2.47;2.00;;;;;;;;;;5088882;28;20120;-77
2021/04/09 03:19:35;;;;;;;2.85;2.40;;;;;;;;;;5089601;28;20050;-77
2021/04/09 03:22:07;;;;;;;2.75;1.95;;;;;;;;;;5088531;28;20398;-76
2021/04/09 03:24:33;;;;;;;2.97;2.40;;;;;;;;;;5089126;28;20028;-77
2021/04/09 03:26:59;;;;;;;3.00;2.70;;;;;;;;;;5088567;28;20119;-76
2021/04/09 03:29:26;;;;;;;4.00;2.92;;;;;;;;;;5089451;28;20020;-77
2021/04/09 03:31:52;;;;;;;2.97;2.17;;;;;;;;;;5088996;28;20119;-77
2021/04/09 03:34:18;;;;;;;2.40;2.13;;;;;;;;;;5088672;28;20032;-77
2021/04/09 03:36:44;;;;;;;4.22;2.33;;;;;;;;;;5089248;28;20032;-77
2021/04/09 03:39:10;;;;;;;2.17;2.08;;;;;;;;;;5088452;28;20090;-76
2021/04/09 03:41:36;;;;;;;2.67;2.30;;;;;;;;;;5089325;28;20035;-77
2021/04/09 03:44:02;;;;;;;2.15;2.05;;;;;;;;;;5089256;28;20043;-77
2021/04/09 03:46:28;;;;;;;3.85;2.72;;;;;;;;;;5093123;28;20419;-77
2021/04/09 03:48:54;;;;;;;2.47;2.28;;;;;;;;;;5092801;28;20032;-76
2021/04/09 03:51:20;;;;;;;2.90;2.55;;;;;;;;;;5092757;28;20024;-77
2021/04/09 03:53:46;;;;;;;2.95;2.22;;;;;;;;;;5093021;28;20024;-77
2021/04/09 03:56:12;;;;;;;2.83;2.17;;;;;;;;;;5092327;28;20032;-77
2021/04/09 03:58:38;;;;;;;2.17;1.98;;;;;;;;;;5092910;28;20472;-77
2021/04/09 04:01:05;;;;;;;3.35;2.33;;;;;;;;;;5092610;28;20558;-77
2021/04/09 04:03:31;;;;;;;2.20;2.00;;;;;;;;;;5092675;28;20047;-77
2021/04/09 04:05:57;;;;;;;4.60;3.20;;;;;;;;;;5092162;28;20035;-76
2021/04/09 04:08:23;;;;;;;2.53;1.92;;;;;;;;;;5092274;28;20032;-77
2021/04/09 04:10:49;;;;;;;2.45;2.25;;;;;;;;;;5092572;28;20110;-77
2021/04/09 04:13:15;;;;;;;2.15;2.05;;;;;;;;;;5092106;28;20478;-77
2021/04/09 04:15:41;;;;;;;2.70;2.10;;;;;;;;;;5092032;28;20406;-77
2021/04/09 04:18:07;;;;;;;5.10;2.58;;;;;;;;;;5073207;28;20035;-76
2021/04/09 04:20:33;;;;;;;2.20;2.05;;;;;;;;;;5091964;28;20024;-77
2021/04/09 04:22:59;;;;;;;2.10;1.60;;;;;;;;;;5091407;28;20040;-77
2021/04/09 04:25:25;;;;;;;5.80;2.92;;;;;;;;;;5091885;28;20038;-77
2021/04/09 04:27:52;;;;;;;2.67;2.47;;;;;;;;;;5092308;28;20034;-77
2021/04/09 04:30:18;;;;;;;3.03;2.30;;;;;;;;;;5091919;28;20031;-77
2021/04/09 04:32:44;;;;;;;6.10;3.00;;;;;;;;;;5091917;28;20050;-77
2021/04/09 04:35:11;;;;;;;3.40;1.90;;;;;;;;;;5091314;28;20020;-77
2021/04/09 04:37:37;;;;;;;3.55;2.90;;;;;;;;;;5091832;28;20028;-77
2021/04/09 04:40:03;;;;;;;2.30;2.10;;;;;;;;;;5091386;28;20506;-76
2021/04/09 04:42:29;;;;;;;2.10;1.85;;;;;;;;;;5091482;28;20024;-77
2021/04/09 04:44:55;;;;;;;4.10;2.40;;;;;;;;;;5091568;28;20039;-76
2021/04/09 04:47:21;;;;;;;2.40;2.20;;;;;;;;;;5091724;28;20082;-77
2021/04/09 04:49:48;;;;;;;2.55;2.20;;;;;;;;;;5091948;28;20020;-77
2021/04/09 04:52:14;;;;;;;2.28;2.13;;;;;;;;;;5090616;28;20035;-77
2021/04/09 04:54:40;;;;;;;3.00;2.08;;;;;;;;;;5092163;28;20024;-77
2021/04/09 04:57:06;;;;;;;2.80;2.05;;;;;;;;;;5089885;28;20028;-77
2021/04/09 04:59:32;;;;;;;4.05;2.65;;;;;;;;;;5091802;28;20039;-77
2021/04/09 05:01:58;;;;;;;2.63;2.30;;;;;;;;;;5090980;28;20379;-76
2021/04/09 05:04:24;;;;;;;2.17;1.58;;;;;;;;;;5091358;28;20027;-77
2021/04/09 05:06:50;;;;;;;2.42;2.17;;;;;;;;;;5092155;28;20035;-77
2021/04/09 05:09:16;;;;;;;2.65;2.42;;;;;;;;;;5091984;28;20070;-78
2021/04/09 05:11:42;;;;;;;3.40;2.47;;;;;;;;;;5092160;28;20057;-77
2021/04/09 05:14:08;;;;;;;2.00;1.90;;;;;;;;;;5091166;28;20024;-77
2021/04/09 05:16:35;;;;;;;2.22;2.03;;;;;;;;;;5091552;28;20035;-77
2021/04/09 05:19:01;;;;;;;3.83;2.25;;;;;;;;;;5091333;28;20099;-77
2021/04/09 05:21:27;;;;;;;8.45;3.20;;;;;;;;;;5091110;28;20024;-77
2021/04/09 05:23:53;;;;;;;3.10;2.88;;;;;;;;;;5091159;28;20375;-77
2021/04/09 05:26:19;;;;;;;2.05;1.75;;;;;;;;;;5090696;28;20047;-77
2021/04/09 05:28:45;;;;;;;3.85;2.38;;;;;;;;;;5091400;28;20032;-77
2021/04/09 05:31:11;;;;;;;2.40;2.20;;;;;;;;;;5090634;28;20547;-77
2021/04/09 05:33:37;;;;;;;2.25;1.88;;;;;;;;;;5091384;28;20486;-77
2021/04/09 05:36:03;;;;;;;3.55;2.42;;;;;;;;;;5090149;28;20409;-77
2021/04/09 05:38:29;;;;;;;3.08;2.78;;;;;;;;;;5090900;28;20048;-77
2021/04/09 05:40:56;;;;;;;3.13;2.47;;;;;;;;;;5090827;28;20032;-76
2021/04/09 05:43:22;;;;;;;2.35;2.08;;;;;;;;;;5090776;28;20058;-77
2021/04/09 05:45:48;;;;;;;3.15;2.03;;;;;;;;;;5090620;28;20040;-77
2021/04/09 05:48:16;;;;;;;2.90;2.55;;;;;;;;;;5090206;28;20166;-76
2021/04/09 05:50:42;;;;;;;4.45;3.35;;;;;;;;;;5080729;28;20043;-77
2021/04/09 05:53:08;;;;;;;7.65;4.47;;;;;;;;;;5088127;28;20085;-76
2021/04/09 05:55:34;;;;;;;7.38;4.50;;;;;;;;;;5096597;28;20024;-78
2021/04/09 05:58:00;;;;;;;8.25;4.78;;;;;;;;;;5110283;28;20028;-77
2021/04/09 06:00:26;;;;;;;6.30;5.40;;;;;;;;;;5111770;28;20110;-78
2021/04/09 06:02:54;;;;;;;6.63;3.58;;;;;;;;;;5111699;28;20080;-77
2021/04/09 06:05:20;;;;;;;4.85;3.63;;;;;;;;;;5084077;28;20485;-77
2021/04/09 06:07:46;;;;;;;7.45;5.00;;;;;;;;;;5069158;28;20460;-78
2021/04/09 06:10:12;;;;;;;5.90;4.78;;;;;;;;;;5081968;28;20070;-73
2021/04/09 06:12:39;;;;;;;10.68;4.80;;;;;;;;;;5089219;28;20028;-78
2021/04/09 06:15:10;;;;;;;5.85;4.38;;;;;;;;;;5089434;28;20522;-78
2021/04/09 06:17:36;;;;;;;8.02;5.53;;;;;;;;;;5097985;28;20520;-78
2021/04/09 06:20:03;;;;;;;10.55;4.82;;;;;;;;;;5079793;28;20036;-77
2021/04/09 06:22:29;;;;;;;6.53;5.88;;;;;;;;;;5069849;28;20115;-78
2021/04/09 06:24:55;;;;;;;9.15;6.00;;;;;;;;;;5068979;28;20082;-78
2021/04/09 06:27:21;;;;;;;9.80;6.07;;;;;;;;;;5068718;28;20148;-76
2021/04/09 06:29:48;;;;;;;8.80;5.30;;;;;;;;;;5068571;28;20177;-76
2021/04/09 06:32:14;;;;;;;6.95;5.85;;;;;;;;;;5100802;28;20560;-78
2021/04/09 06:34:40;;;;;;;10.95;6.35;;;;;;;;;;5107911;28;20100;-78
2021/04/09 06:37:06;;;;;;;7.75;5.30;;;;;;;;;;5089954;28;20412;-77
2021/04/09 06:39:32;;;;;;;7.50;5.63;;;;;;;;;;5090512;28;20044;-76
2021/04/09 06:41:58;;;;;;;12.27;5.63;;;;;;;;;;5085013;28;20490;-76
2021/04/09 06:44:24;;;;;;;11.45;5.70;;;;;;;;;;5082288;28;20131;-77
2021/04/09 06:46:50;;;;;;;14.38;6.78;;;;;;;;;;5075651;28;20107;-77
2021/04/09 06:49:16;;;;;;;10.93;6.65;;;;;;;;;;5088952;28;20032;-78
2021/04/09 06:51:45;;;;;;;9.77;6.63;;;;;;;;;;5099866;28;20031;-78
2021/04/09 06:54:12;;;;;;;11.90;7.18;;;;;;;;;;5108970;28;20035;-78
2021/04/09 06:56:38;;;;;;;12.35;6.72;;;;;;;;;;5084883;28;20047;-80
2021/04/09 06:59:05;;;;;;;11.60;6.55;;;;;;;;;;5097816;28;20036;-77
2021/04/09 07:01:31;;;;;;;9.18;6.20;;;;;;;;;;5102901;28;20027;-77
2021/04/09 07:03:57;;;;;;;12.48;8.38;;;;;;;;;;5077774;28;20024;-77
2021/04/09 07:06:28;;;;;;;12.02;7.93;;;;;;;;;;5068575;28;20044;-82
2021/04/09 07:08:54;;;;;;;9.73;6.95;;;;;;;;;;5088078;28;20028;-76
2021/04/09 07:11:21;;;;;;;11.70;7.40;;;;;;;;;;5071742;28;20055;-77
2021/04/09 07:13:48;;;;;;;8.98;7.68;;;;;;;;;;5067357;28;20372;-78
2021/04/09 07:16:14;;;;;;;10.43;6.93;;;;;;;;;;5076113;28;20035;-78
2021/04/09 07:18:54;;;;;;;8.82;6.63;;;;;;;;;;5092291;28;20043;-78
2021/04/09 07:21:24;;;;;;;11.00;7.30;;;;;;;;;;5088732;28;20033;-78
2021/04/09 07:24:10;;;;;;;10.35;5.70;;;;;;;;;;5072838;28;20028;-78
2021/04/09 07:26:53;;;;;;;9.48;7.63;;;;;;;;;;5072902;28;20039;-78
2021/04/09 07:29:39;;;;;;;10.85;6.50;;;;;;;;;;5106172;28;20447;-78
2021/04/09 07:32:15;;;;;;;11.10;7.00;;;;;;;;;;5112393;28;20533;-78
2021/04/09 07:34:52;;;;;;;15.05;6.90;;;;;;;;;;5113868;28;20480;-78
2021/04/09 07:37:18;;;;;;;9.55;6.78;;;;;;;;;;5111857;28;20500;-78
2021/04/09 07:39:44;;;;;;;16.73;6.65;;;;;;;;;;5113576;28;20051;-78
2021/04/09 07:42:11;;;;;;;7.15;5.07;;;;;;;;;;5112407;28;20428;-78
2021/04/09 07:44:39;;;;;;;11.45;6.65;;;;;;;;;;5108073;28;20455;-77
2021/04/09 07:47:12;;;;;;;8.38;6.35;;;;;;;;;;5111660;28;20607;-78
2021/04/09 07:49:38;;;;;;;5.63;5.13;;;;;;;;;;5072568;28;20466;-78
2021/04/09 07:52:10;;;;;;;9.70;5.35;;;;;;;;;;5108004;28;20345;-78
2021/04/09 07:54:37;;;;;;;7.97;5.32;;;;;;;;;;5104762;28;20081;-78
2021/04/09 07:57:03;;;;;;;9.43;5.70;;;;;;;;;;5079175;28;20028;-77
2021/04/09 07:59:39;;;;;;;8.52;5.38;;;;;;;;;;5092450;28;20040;-73
2021/04/09 08:02:05;;;;;;;9.45;5.93;;;;;;;;;;5080255;28;20131;-77
2021/04/09 08:04:41;;;;;;;6.88;4.70;;;;;;;;;;5072255;28;20067;-78
2021/04/09 08:07:08;;;;;;;8.95;5.28;;;;;;;;;;5070882;28;20491;-78
2021/04/09 08:09:54;;;;;;;7.40;6.32;;;;;;;;;;5072118;28;20028;-77
2021/04/09 08:12:26;;;;;;;7.88;4.82;;;;;;;;;;5071091;28;20040;-75
2021/04/09 08:14:53;;;;;;;8.35;4.30;;;;;;;;;;5072283;28;20048;-77
2021/04/09 08:17:20;;;;;;;11.32;5.63;;;;;;;;;;5074654;28;20054;-77
2021/04/09 08:19:52;;;;;;;10.43;5.43;;;;;;;;;;5072562;28;20383;-77
2021/04/09 08:22:18;;;;;;;8.65;5.20;;;;;;;;;;5071409;28;20569;-77
2021/04/09 08:24:45;;;;;;;5.53;3.95;;;;;;;;;;5098818;28;20042;-77
2021/04/09 08:27:12;;;;;;;5.38;4.60;;;;;;;;;;5111137;28;20035;-77
2021/04/09 08:29:38;;;;;;;5.88;5.05;;;;;;;;;;5082780;28;20522;-77
2021/04/09 08:32:05;;;;;;;5.43;4.85;;;;;;;;;;5092010;28;20023;-77
2021/04/09 08:34:31;;;;;;;7.25;5.10;;;;;;;;;;5112495;28;20020;-77
2021/04/09 08:36:58;;;;;;;7.20;5.18;;;;;;;;;;5110841;28;20020;-77
2021/04/09 08:39:25;;;;;;;9.82;5.38;;;;;;;;;;5111548;28;20080;-77
2021/04/09 08:41:53;;;;;;;12.13;6.10;;;;;;;;;;5111848;28;20126;-77
2021/04/09 08:44:19;;;;;;;15.02;5.50;;;;;;;;;;5080004;28;20033;-77
2021/04/09 08:46:46;;;;;;;8.38;5.45;;;;;;;;;;5079217;28;20483;-77
2021/04/09 08:49:13;;;;;;;6.05;4.70;;;;;;;;;;5088711;28;20028;-79
2021/04/09 08:51:40;;;;;;;10.50;5.32;;;;;;;;;;5075974;28;20055;-77
2021/04/09 08:54:15;;;;;;;6.57;5.85;;;;;;;;;;5079795;28;20520;-77
2021/04/09 08:56:42;;;;;;;8.40;4.68;;;;;;;;;;5105915;28;20493;-75
2021/04/09 08:59:08;;;;;;;5.90;4.47;;;;;;;;;;5087096;28;20027;-74
2021/04/09 09:01:34;;;;;;;9.68;4.90;;;;;;;;;;5108660;28;20485;-76
2021/04/09 09:04:19;;;;;;;5.00;4.38;;;;;;;;;;5109647;28;20028;-78
2021/04/09 09:06:45;;;;;;;7.07;4.03;;;;;;;;;;5111327;28;20074;-74
2021/04/09 09:09:11;;;;;;;7.15;4.15;;;;;;;;;;5110591;28;20474;-73
2021/04/09 09:11:50;;;;;;;5.30;3.60;;;;;;;;;;5091584;28;20118;-74
2021/04/09 09:14:42;;;;;;;7.22;5.07;;;;;;;;;;5090642;28;20032;-76
2021/04/09 09:17:17;;;;;;;4.88;4.28;;;;;;;;;;5084167;28;20127;-75
2021/04/09 09:19:44;;;;;;;5.35;4.25;;;;;;;;;;5081821;28;20032;-76
2021/04/09 09:22:11;;;;;;;5.57;4.20;;;;;;;;;;5069575;28;20025;-76
2021/04/09 09:24:57;;;;;;;4.68;3.78;;;;;;;;;;5082722;28;20032;-76
2021/04/09 09:27:43;;;;;;;5.10;3.47;;;;;;;;;;5070670;28;20036;-76
2021/04/09 09:30:31;;;;;;;4.57;3.72;;;;;;;;;;5069975;28;20362;-76
2021/04/09 09:33:16;;;;;;;5.70;3.42;;;;;;;;;;5081340;28;20039;-76
2021/04/09 09:36:01;;;;;;;4.80;3.78;;;;;;;;;;5090560;28;20475;-74
2021/04/09 09:38:46;;;;;;;5.32;3.38;;;;;;;;;;5109091;28;20126;-75
2021/04/09 09:41:12;;;;;;;12.68;3.80;;;;;;;;;;5109675;28;20039;-76
2021/04/09 09:43:41;;;;;;;3.90;3.10;;;;;;;;;;5111270;28;20038;-76
2021/04/09 09:46:08;;;;;;;7.95;4.25;;;;;;;;;;5107195;28;20051;-76
2021/04/09 09:48:34;;;;;;;3.58;3.28;;;;;;;;;;5089705;28;20031;-76
2021/04/09 09:51:20;;;;;;;9.35;4.38;;;;;;;;;;5069322;28;20033;-76
2021/04/09 09:53:57;;;;;;;4.45;3.40;;;;;;;;;;5070055;28;20049;-76
2021/04/09 09:56:27;;;;;;;6.45;4.60;;;;;;;;;;5070132;28;20028;-76
2021/04/09 09:58:53;;;;;;;4.78;3.33;;;;;;;;;;5088204;28;20031;-76
2021/04/09 10:01:24;;;;;;;3.40;2.78;;;;;;;;;;5106645;28;20023;-76
2021/04/09 10:03:50;;;;;;;4.32;3.45;;;;;;;;;;5070690;28;20039;-76
2021/04/09 10:06:16;;;;;;;7.72;3.30;;;;;;;;;;5068726;28;20040;-75
2021/04/09 10:08:43;;;;;;;5.85;2.90;;;;;;;;;;5069668;28;20471;-75
2021/04/09 10:11:19;;;;;;;3.40;3.10;;;;;;;;;;5068606;28;20060;-75
2021/04/09 10:13:46;;;;;;;3.92;3.50;;;;;;;;;;5069258;28;20024;-75
2021/04/09 10:16:14;;;;;;;5.18;3.15;;;;;;;;;;5081772;28;20032;-78
2021/04/09 10:18:41;;;;;;;4.95;4.50;;;;;;;;;;5090366;28;20115;-75
2021/04/09 10:21:12;;;;;;;5.63;3.92;;;;;;;;;;5089148;28;20459;-75
2021/04/09 10:23:38;;;;;;;5.43;3.67;;;;;;;;;;5077030;28;20047;-76
2021/04/09 10:26:04;;;;;;;4.75;3.83;;;;;;;;;;5095801;28;20040;-74
2021/04/09 10:28:37;;;;;;;8.75;3.65;;;;;;;;;;5086436;28;20550;-76
2021/04/09 10:31:09;;;;;;;3.83;3.45;;;;;;;;;;5082138;28;20059;-76
2021/04/09 10:33:39;;;;;;;4.25;3.85;;;;;;;;;;5069482;28;20039;-76
2021/04/09 10:36:24;;;;;;;3.53;3.20;;;;;;;;;;5068439;28;20089;-76
2021/04/09 10:38:52;;;;;;;5.38;3.55;;;;;;;;;;5079919;28;20048;-76
2021/04/09 10:41:27;;;;;;;5.70;3.47;;;;;;;;;;5078116;28;20083;-73
2021/04/09 10:43:53;;;;;;;5.72;3.97;;;;;;;;;;5069547;28;20032;-76
2021/04/09 10:46:20;;;;;;;11.00;2.97;;;;;;;;;;5077477;28;20645;-76
2021/04/09 10:48:46;;;;;;;3.05;2.75;;;;;;;;;;5110497;28;20382;-76
2021/04/09 10:51:12;;;;;;;6.18;3.63;;;;;;;;;;5108778;28;20031;-75
2021/04/09 10:53:41;;;;;;;3.13;2.83;;;;;;;;;;5109422;28;20023;-76
2021/04/09 10:56:09;;;;;;;4.38;3.17;;;;;;;;;;5090496;28;20424;-76
2021/04/09 10:58:35;;;;;;;6.68;3.58;;;;;;;;;;5110380;28;20028;-76
2021/04/09 11:01:02;;;;;;;7.93;4.10;;;;;;;;;;5089114;28;20028;-76
2021/04/09 11:03:28;;;;;;;4.35;3.25;;;;;;;;;;5071695;28;20352;-77
2021/04/09 11:05:54;;;;;;;4.15;3.13;;;;;;;;;;5089475;28;20043;-76
2021/04/09 11:08:41;;;;;;;3.42;3.13;;;;;;;;;;5088741;28;20067;-76
2021/04/09 11:11:09;;;;;;;5.45;3.95;;;;;;;;;;5088666;28;20054;-77
2021/04/09 11:13:36;;;;;;;3.65;3.33;;;;;;;;;;5089486;28;20020;-77
2021/04/09 11:16:03;;;;;;;5.10;3.35;;;;;;;;;;5081127;28;20421;-76
2021/04/09 11:18:48;;;;;;;4.25;3.25;;;;;;;;;;5081640;28;20028;-76
2021/04/09 11:21:14;;;;;;;6.00;4.05;;;;;;;;;;5076351;28;20035;-76
2021/04/09 11:23:40;;;;;;;4.50;2.88;;;;;;;;;;5092638;28;20514;-77
2021/04/09 11:26:19;;;;;;;6.35;3.85;;;;;;;;;;5091901;28;20051;-77
2021/04/09 11:28:54;;;;;;;6.03;3.80;;;;;;;;;;5104682;28;20103;-77
2021/04/09 11:31:22;;;;;;;4.47;2.85;;;;;;;;;;5108863;28;20478;-76
2021/04/09 11:33:48;;;;;;;9.60;3.17;;;;;;;;;;5109412;28;20024;-77
2021/04/09 11:36:15;;;;;;;4.10;3.30;;;;;;;;;;5108359;28;20032;-76
2021/04/09 11:38:41;;;;;;;4.47;3.95;;;;;;;;;;5083204;28;20069;-77
2021/04/09 11:41:24;;;;;;;7.05;3.85;;;;;;;;;;5066911;28;20024;-76
2021/04/09 11:43:50;;;;;;;8.65;3.50;;;;;;;;;;5068320;28;20098;-77
2021/04/09 11:46:32;;;;;;;5.28;3.00;;;;;;;;;;5071162;28;20078;-76
2021/04/09 11:49:08;;;;;;;5.28;4.43;;;;;;;;;;5098563;28;20035;-76
2021/04/09 11:51:35;;;;;;;3.05;2.83;;;;;;;;;;5107670;28;20020;-77
2021/04/09 11:54:05;;;;;;;11.40;3.90;;;;;;;;;;5094232;28;20039;-76
2021/04/09 11:56:47;;;;;;;4.88;3.10;;;;;;;;;;5108748;28;20015;-78
2021/04/09 11:59:14;;;;;;;10.18;3.33;;;;;;;;;;5108100;28;20070;-78
2021/04/09 12:01:41;;;;;;;6.80;3.28;;;;;;;;;;5108580;28;20049;-78
2021/04/09 12:04:08;;;;;;;4.68;3.05;;;;;;;;;;5107912;28;20073;-77
2021/04/09 12:06:37;;;;;;;7.35;3.72;;;;;;;;;;5111236;28;20036;-77
2021/04/09 12:09:07;;;;;;;5.60;3.78;;;;;;;;;;5111696;28;20615;-77
2021/04/09 12:11:33;;;;;;;8.95;3.83;;;;;;;;;;5112333;28;20035;-77
2021/04/09 12:13:59;;;;;;;6.88;2.85;;;;;;;;;;5112068;28;20047;-77
2021/04/09 12:16:26;;;;;;;5.50;3.67;;;;;;;;;;5111887;28;20478;-77
2021/04/09 12:18:52;;;;;;;5.85;3.65;;;;;;;;;;5112493;28;20031;-77
2021/04/09 12:21:18;;;;;;;5.45;3.50;;;;;;;;;;5111159;28;20032;-77
2021/04/09 12:23:44;;;;;;;5.90;3.40;;;;;;;;;;5112047;28;20553;-76
2021/04/09 12:26:10;;;;;;;4.65;3.33;;;;;;;;;;5110646;28;20027;-77
2021/04/09 12:28:37;;;;;;;5.45;3.88;;;;;;;;;;5112195;28;20466;-77
2021/04/09 12:31:03;;;;;;;24.05;3.40;;;;;;;;;;5094501;28;20477;-76
2021/04/09 12:33:30;;;;;;;5.88;2.75;;;;;;;;;;5111341;28;20131;-76
2021/04/09 12:35:56;;;;;;;9.02;3.85;;;;;;;;;;5109526;28;20035;-77
2021/04/09 12:38:22;;;;;;;5.30;3.08;;;;;;;;;;5091698;28;20450;-77
2021/04/09 12:40:48;;;;;;;5.15;2.72;;;;;;;;;;5093169;28;20097;-77
2021/04/09 12:43:14;;;;;;;3.58;3.28;;;;;;;;;;5069946;28;20134;-77
2021/04/09 12:45:40;;;;;;;7.35;2.63;;;;;;;;;;5071109;28;20113;-77
2021/04/09 12:48:06;;;;;;;5.35;3.53;;;;;;;;;;5106040;28;20073;-77
2021/04/09 12:50:32;;;;;;;3.70;3.10;;;;;;;;;;5111421;28;20027;-76
2021/04/09 12:52:59;;;;;;;5.13;3.13;;;;;;;;;;5080919;28;20120;-77
2021/04/09 12:55:26;;;;;;;3.97;2.65;;;;;;;;;;5071269;28;20059;-78
2021/04/09 12:57:52;;;;;;;3.08;2.22;;;;;;;;;;5097429;28;20316;-78
2021/04/09 13:00:19;;;;;;;5.10;2.55;;;;;;;;;;5106543;28;20031;-79
2021/04/09 13:02:45;;;;;;;3.83;2.65;;;;;;;;;;5110950;28;20032;-79
2021/04/09 13:05:11;;;;;;;4.15;3.55;;;;;;;;;;5110501;28;20032;-76
2021/04/09 13:07:37;;;;;;;3.58;2.45;;;;;;;;;;5110775;28;20102;-76
2021/04/09 13:10:04;;;;;;;6.25;3.13;;;;;;;;;;5091846;28;20127;-75
2021/04/09 13:12:30;;;;;;;15.73;4.03;;;;;;;;;;5090456;28;20039;-76
2021/04/09 13:14:56;;;;;;;6.25;2.33;;;;;;;;;;5090521;28;20478;-75
2021/04/09 13:17:22;;;;;;;4.13;3.28;;;;;;;;;;5090141;28;20031;-77
2021/04/09 13:19:48;;;;;;;5.82;2.80;;;;;;;;;;5090957;28;20024;-76
2021/04/09 13:22:14;;;;;;;4.30;2.80;;;;;;;;;;5090002;28;20550;-82
2021/04/09 13:24:40;;;;;;;8.05;3.78;;;;;;;;;;5090711;28;20398;-77
2021/04/09 13:27:14;;;;;;;9.85;3.97;;;;;;;;;;5089784;28;20028;-78
2021/04/09 13:29:41;;;;;;;5.70;3.05;;;;;;;;;;5090886;28;20020;-77
2021/04/09 13:32:07;;;;;;;5.53;3.25;;;;;;;;;;5089721;28;20032;-78
2021/04/09 13:34:33;;;;;;;5.60;3.03;;;;;;;;;;5099494;28;20042;-77
2021/04/09 13:36:59;;;;;;;3.95;1.92;;;;;;;;;;5109997;28;20526;-77
2021/04/09 13:39:25;;;;;;;6.65;2.75;;;;;;;;;;5110322;28;20036;-77
2021/04/09 13:41:52;;;;;;;5.63;2.65;;;;;;;;;;5111026;28;20084;-77
2021/04/09 13:44:18;;;;;;;6.55;2.25;;;;;;;;;;5109833;28;20092;-78
2021/04/09 13:46:44;;;;;;;9.15;3.95;;;;;;;;;;5102535;28;20040;-77
2021/04/09 13:49:10;;;;;;;4.53;2.55;;;;;;;;;;5089776;28;20047;-77
2021/04/09 13:51:37;;;;;;;5.65;2.60;;;;;;;;;;5090230;28;20024;-77
2021/04/09 13:54:03;;;;;;;5.32;2.38;;;;;;;;;;5085170;28;20502;-82
2021/04/09 13:56:29;;;;;;;4.53;2.50;;;;;;;;;;5069309;28;20029;-77
2021/04/09 13:58:55;;;;;;;5.60;2.17;;;;;;;;;;5072989;28;20044;-76
2021/04/09 14:01:21;;;;;;;5.47;2.20;;;;;;;;;;5068973;28;20036;-78
2021/04/09 14:03:47;;;;;;;6.80;2.40;;;;;;;;;;5105939;28;20059;-78
2021/04/09 14:06:13;;;;;;;3.40;2.35;;;;;;;;;;5109391;28;20039;-73
2021/04/09 14:08:39;;;;;;;2.97;2.20;;;;;;;;;;5110771;28;20024;-75
2021/04/09 14:11:05;;;;;;;3.95;2.00;;;;;;;;;;5109200;28;20555;-77
2021/04/09 14:13:31;;;;;;;4.88;2.33;;;;;;;;;;5101960;28;20055;-76
2021/04/09 14:15:57;;;;;;;5.28;2.78;;;;;;;;;;5069326;28;20028;-77
2021/04/09 14:18:25;;;;;;;3.55;2.25;;;;;;;;;;5069941;28;20090;-77
2021/04/09 14:20:51;;;;;;;2.72;2.13;;;;;;;;;;5069996;28;20020;-77
2021/04/09 14:23:17;;;;;;;3.60;2.50;;;;;;;;;;5068829;28;20097;-77
2021/04/09 14:25:43;;;;;;;5.75;2.33;;;;;;;;;;5070064;28;20407;-77
2021/04/09 14:28:09;;;;;;;4.75;2.33;;;;;;;;;;5068513;28;20097;-77
2021/04/09 14:30:37;;;;;;;4.28;2.88;;;;;;;;;;5068460;28;20052;-77
2021/04/09 14:33:03;;;;;;;5.18;2.50;;;;;;;;;;5068480;28;20048;-77
2021/04/09 14:35:29;;;;;;;6.93;3.25;;;;;;;;;;5069446;28;20025;-77
2021/04/09 14:37:55;;;;;;;3.42;2.60;;;;;;;;;;5070664;28;20498;-76
2021/04/09 14:40:22;;;;;;;5.32;2.88;;;;;;;;;;5087087;28;20107;-76
2021/04/09 14:42:48;;;;;;;3.40;2.53;;;;;;;;;;5069361;28;20036;-77
2021/04/09 14:45:15;;;;;;;3.50;2.45;;;;;;;;;;5068278;28;20044;-78